La rose des vents
Donnes mto: Semaine 21/04/08 - 27/04/08 (S 17)
Date Horaire Temp. E. Hum. E. P.atmo. Pluie Vent 1mn Direction Ensoleilleme Ev.Tr. Solaire P. de rose Temp au vent Rafales
21/04/2008 00:00 9,6 C 96 % 1003,0 hPa 2,0 l/m 3,4 km/h (1 Bft) E-NE 0,00 h 0,025 mm 0 W/m 8,9 C 9,4 C 5,1 km/h (1 Bft)
21/04/2008 01:00 9,6 C 96 % 1002,6 hPa 3,0 l/m 6,0 km/h (2 Bft) O 0,00 h 0,000 mm 0 W/m 9,0 C 9,0 C 8,3 km/h (2 Bft)
21/04/2008 02:00 9,0 C 96 % 1001,3 hPa 1,6 l/m 5,2 km/h (1 Bft) N 0,00 h 0,000 mm 0 W/m 8,4 C 8,5 C 8,8 km/h (2 Bft)
21/04/2008 03:00 8,5 C 96 % 1000,7 hPa 1,4 l/m 3,1 km/h (1 Bft) NE 0,00 h 0,000 mm 0 W/m 7,9 C 8,2 C 5,2 km/h (1 Bft)
21/04/2008 04:00 8,4 C 96 % 999,4 hPa 0,2 l/m 5,2 km/h (1 Bft) N 0,00 h 0,000 mm 0 W/m 7,8 C 7,7 C 8,5 km/h (2 Bft)
21/04/2008 05:00 8,5 C 96 % 998,8 hPa 0,0 l/m 5,2 km/h (1 Bft) S 0,00 h 0,000 mm 0 W/m 7,9 C 8,0 C 6,2 km/h (2 Bft)
21/04/2008 06:00 8,7 C 96 % 998,6 hPa 0,0 l/m 4,3 km/h (1 Bft) S 0,00 h 0,000 mm 6 W/m 8,1 C 8,4 C 5,9 km/h (2 Bft)
21/04/2008 07:00 9,0 C 96 % 998,7 hPa 0,0 l/m 6,0 km/h (2 Bft) O-SO 0,00 h 0,000 mm 15 W/m 8,4 C 8,3 C 9,1 km/h (2 Bft)
21/04/2008 08:00 9,3 C 96 % 999,0 hPa 0,0 l/m 11,4 km/h (2 Bft) O-SO 0,00 h 0,025 mm 53 W/m 8,7 C 7,6 C 16,3 km/h (3 Bft)
21/04/2008 09:00 9,8 C 95 % 999,1 hPa 0,6 l/m 9,3 km/h (2 Bft) O 0,20 h 0,025 mm 152 W/m 9,1 C 8,7 C 12,8 km/h (3 Bft)
21/04/2008 10:00 11,8 C 91 % 998,7 hPa 0,0 l/m 4,0 km/h (1 Bft) S-SE 0,32 h 0,076 mm 369 W/m 10,3 C 11,8 C 6,4 km/h (2 Bft)
21/04/2008 11:00 13,2 C 83 % 998,5 hPa 0,0 l/m 12,3 km/h (3 Bft) SO 0,80 h 0,178 mm 669 W/m 10,5 C 13,2 C 17,1 km/h (3 Bft)
21/04/2008 12:00 15,2 C 72 % 998,2 hPa 0,0 l/m 18,2 km/h (3 Bft) SO 0,98 h 0,356 mm 912 W/m 10,3 C 15,2 C 24,7 km/h (4 Bft)
21/04/2008 13:00 17,2 C 59 % 997,6 hPa 0,0 l/m 23,9 km/h (4 Bft) SO 0,97 h 0,508 mm 877 W/m 9,1 C 17,2 C 32,5 km/h (5 Bft)
21/04/2008 14:00 17,8 C 53 % 997,3 hPa 0,0 l/m 29,8 km/h (5 Bft) SO 0,93 h 0,610 mm 765 W/m 8,0 C 17,8 C 38,9 km/h (6 Bft)
21/04/2008 15:00 17,9 C 50 % 997,4 hPa 0,0 l/m 28,2 km/h (4 Bft) SO 0,87 h 0,610 mm 659 W/m 7,4 C 17,9 C 37,8 km/h (5 Bft)
21/04/2008 16:00 19,1 C 45 % 997,2 hPa 0,0 l/m 23,6 km/h (4 Bft) SO 0,98 h 0,533 mm 654 W/m 6,8 C 19,1 C 32,7 km/h (5 Bft)
21/04/2008 17:00 18,6 C 43 % 997,6 hPa 0,0 l/m 21,4 km/h (4 Bft) O-SO 0,85 h 0,533 mm 454 W/m 5,7 C 18,6 C 30,3 km/h (5 Bft)
21/04/2008 18:00 18,1 C 43 % 997,8 hPa 0,0 l/m 24,4 km/h (4 Bft) SO 0,60 h 0,432 mm 210 W/m 5,4 C 18,1 C 32,0 km/h (5 Bft)
21/04/2008 19:00 16,1 C 51 % 998,5 hPa 0,0 l/m 21,6 km/h (4 Bft) SO 0,23 h 0,305 mm 63 W/m 5,9 C 16,1 C 29,3 km/h (5 Bft)
21/04/2008 20:00 14,7 C 54 % 999,2 hPa 0,0 l/m 21,4 km/h (4 Bft) SO 0,00 h 0,178 mm 10 W/m 5,6 C 14,7 C 28,3 km/h (4 Bft)
21/04/2008 21:00 13,7 C 60 % 999,8 hPa 0,0 l/m 20,3 km/h (4 Bft) SO 0,00 h 0,127 mm 0 W/m 6,2 C 13,7 C 27,2 km/h (4 Bft)
21/04/2008 22:00 13,0 C 64 % 1000,1 hPa 0,0 l/m 19,4 km/h (3 Bft) SO 0,00 h 0,102 mm 0 W/m 6,4 C 13,0 C 26,2 km/h (4 Bft)
21/04/2008 23:00 12,3 C 68 % 1000,1 hPa 0,0 l/m 16,8 km/h (3 Bft) S-SO 0,00 h 0,102 mm 0 W/m 6,5 C 12,3 C 22,2 km/h (4 Bft)
22/04/2008 00:00 11,5 C 71 % 999,4 hPa 0,0 l/m 21,9 km/h (4 Bft) SO 0,00 h 0,076 mm 0 W/m 6,4 C 11,5 C 27,7 km/h (4 Bft)
22/04/2008 01:00 11,8 C 68 % 998,8 hPa 0,0 l/m 28,9 km/h (5 Bft) SO 0,00 h 0,076 mm 0 W/m 6,1 C 11,8 C 36,3 km/h (5 Bft)
22/04/2008 02:00 11,4 C 71 % 998,2 hPa 0,0 l/m 19,0 km/h (3 Bft) O-SO 0,00 h 0,102 mm 0 W/m 6,3 C 11,4 C 27,1 km/h (4 Bft)
22/04/2008 03:00 10,9 C 72 % 997,9 hPa 0,0 l/m 13,8 km/h (3 Bft) O-SO 0,00 h 0,076 mm 0 W/m 6,1 C 10,9 C 18,7 km/h (3 Bft)
22/04/2008 04:00 10,7 C 71 % 997,5 hPa 0,0 l/m 8,9 km/h (2 Bft) SO 0,00 h 0,051 mm 0 W/m 5,8 C 10,7 C 11,7 km/h (2 Bft)
22/04/2008 05:00 9,7 C 74 % 997,5 hPa 0,0 l/m 2,0 km/h (1 Bft) N 0,00 h 0,051 mm 0 W/m 5,3 C 9,7 C 2,9 km/h (1 Bft)
22/04/2008 06:00 9,6 C 72 % 997,7 hPa 0,0 l/m 3,5 km/h (1 Bft) N-NE 0,00 h 0,025 mm 8 W/m 4,8 C 9,5 C 5,6 km/h (1 Bft)
22/04/2008 07:00 10,0 C 78 % 998,2 hPa 0,0 l/m 2,3 km/h (1 Bft) O 0,00 h 0,025 mm 44 W/m 6,3 C 10,0 C 3,7 km/h (1 Bft)
22/04/2008 08:00 12,0 C 82 % 998,5 hPa 0,0 l/m 0,9 km/h (0 Bft) O 0,38 h 0,025 mm 182 W/m 9,0 C 12,0 C 2,1 km/h (1 Bft)
22/04/2008 09:00 14,6 C 75 % 998,8 hPa 0,0 l/m 4,5 km/h (1 Bft) E 1,00 h 0,102 mm 453 W/m 10,1 C 14,6 C 7,1 km/h (2 Bft)
22/04/2008 10:00 15,7 C 69 % 999,2 hPa 0,0 l/m 6,5 km/h (2 Bft) E 1,00 h 0,254 mm 606 W/m 10,1 C 15,7 C 10,6 km/h (2 Bft)
22/04/2008 11:00 16,2 C 71 % 999,5 hPa 0,0 l/m 9,4 km/h (2 Bft) E 1,00 h 0,356 mm 732 W/m 10,8 C 16,2 C 14,5 km/h (3 Bft)
22/04/2008 12:00 16,9 C 72 % 999,8 hPa 0,0 l/m 10,3 km/h (2 Bft) E-NE 1,00 h 0,432 mm 759 W/m 11,8 C 16,9 C 15,7 km/h (3 Bft)
22/04/2008 13:00 16,9 C 71 % 999,9 hPa 0,0 l/m 9,8 km/h (2 Bft) E-NE 0,85 h 0,457 mm 634 W/m 11,7 C 16,9 C 16,0 km/h (3 Bft)
22/04/2008 14:00 15,9 C 75 % 1000,5 hPa 0,0 l/m 6,5 km/h (2 Bft) E 0,88 h 0,381 mm 567 W/m 11,4 C 15,9 C 12,5 km/h (3 Bft)
22/04/2008 15:00 16,2 C 74 % 1001,2 hPa 0,0 l/m 7,6 km/h (2 Bft) E 1,00 h 0,330 mm 684 W/m 11,6 C 16,2 C 12,5 km/h (3 Bft)
22/04/2008 16:00 16,2 C 76 % 1001,6 hPa 0,0 l/m 7,4 km/h (2 Bft) E 1,00 h 0,381 mm 608 W/m 12,0 C 16,2 C 12,1 km/h (2 Bft)
22/04/2008 17:00 15,5 C 80 % 1002,3 hPa 0,0 l/m 6,1 km/h (2 Bft) E 0,97 h 0,356 mm 359 W/m 12,0 C 15,5 C 10,9 km/h (2 Bft)
22/04/2008 18:00 14,8 C 81 % 1003,0 hPa 0,0 l/m 2,6 km/h (1 Bft) E 0,52 h 0,203 mm 189 W/m 11,6 C 14,8 C 5,3 km/h (1 Bft)
22/04/2008 19:00 13,9 C 84 % 1003,4 hPa 0,0 l/m 0,8 km/h (0 Bft) E-SE 0,38 h 0,102 mm 82 W/m 11,3 C 13,9 C 2,1 km/h (1 Bft)
22/04/2008 20:00 12,8 C 86 % 1003,9 hPa 0,0 l/m 0,1 km/h (0 Bft) E-SE 0,10 h 0,051 mm 13 W/m 10,5 C 12,8 C 0,5 km/h (0 Bft)
22/04/2008 21:00 11,8 C 87 % 1004,8 hPa 0,0 l/m 1,1 km/h (1 Bft) E-SE 0,00 h 0,000 mm 0 W/m 9,7 C 11,8 C 2,4 km/h (1 Bft)
22/04/2008 22:00 11,3 C 89 % 1005,6 hPa 0,0 l/m 1,5 km/h (1 Bft) E-SE 0,00 h 0,025 mm 0 W/m 9,6 C 11,3 C 2,6 km/h (1 Bft)
22/04/2008 23:00 11,1 C 90 % 1006,3 hPa 0,0 l/m 1,4 km/h (1 Bft) E-SE 0,00 h 0,025 mm 0 W/m 9,5 C 11,1 C 2,5 km/h (1 Bft)
23/04/2008 00:00 10,8 C 91 % 1006,8 hPa 0,0 l/m 0,3 km/h (0 Bft) E-SE 0,00 h 0,025 mm 0 W/m 9,3 C 10,8 C 0,5 km/h (0 Bft)
23/04/2008 01:00 11,0 C 92 % 1007,7 hPa 0,0 l/m 3,3 km/h (1 Bft) E-SE 0,00 h 0,000 mm 0 W/m 9,7 C 11,0 C 4,5 km/h (1 Bft)
23/04/2008 02:00 10,7 C 92 % 1007,9 hPa 0,0 l/m 3,2 km/h (1 Bft) NO 0,00 h 0,025 mm 0 W/m 9,5 C 10,7 C 4,9 km/h (1 Bft)
23/04/2008 03:00 10,1 C 93 % 1008,2 hPa 0,0 l/m 4,5 km/h (1 Bft) NO 0,00 h 0,025 mm 0 W/m 9,0 C 10,1 C 7,2 km/h (2 Bft)
23/04/2008 04:00 9,8 C 93 % 1008,5 hPa 0,0 l/m 4,1 km/h (1 Bft) NO 0,00 h 0,025 mm 0 W/m 8,8 C 9,6 C 5,2 km/h (1 Bft)
23/04/2008 05:00 9,8 C 94 % 1008,8 hPa 0,0 l/m 5,4 km/h (1 Bft) NO 0,00 h 0,000 mm 0 W/m 8,9 C 9,5 C 6,6 km/h (2 Bft)
23/04/2008 06:00 9,8 C 93 % 1009,4 hPa 0,2 l/m 7,1 km/h (2 Bft) O 0,03 h 0,025 mm 11 W/m 8,7 C 9,0 C 8,3 km/h (2 Bft)
23/04/2008 07:00 10,3 C 93 % 1010,0 hPa 0,0 l/m 2,0 km/h (1 Bft) O 0,25 h 0,025 mm 64 W/m 9,2 C 10,3 C 3,4 km/h (1 Bft)
23/04/2008 08:00 12,3 C 92 % 1010,6 hPa 0,0 l/m 1,0 km/h (0 Bft) O 0,47 h 0,025 mm 181 W/m 10,9 C 12,3 C 2,6 km/h (1 Bft)
23/04/2008 09:00 14,1 C 85 % 1011,2 hPa 0,0 l/m 5,2 km/h (1 Bft) S 1,00 h 0,102 mm 469 W/m 11,5 C 14,1 C 7,7 km/h (2 Bft)
23/04/2008 10:00 16,3 C 76 % 1011,8 hPa 0,0 l/m 6,3 km/h (2 Bft) S 1,00 h 0,254 mm 670 W/m 12,0 C 16,3 C 10,1 km/h (2 Bft)
23/04/2008 11:00 17,1 C 72 % 1012,4 hPa 0,0 l/m 10,8 km/h (2 Bft) E 1,00 h 0,381 mm 733 W/m 12,1 C 17,1 C 15,6 km/h (3 Bft)
23/04/2008 12:00 16,9 C 73 % 1013,0 hPa 0,0 l/m 8,9 km/h (2 Bft) E 1,00 h 0,432 mm 814 W/m 12,0 C 16,9 C 14,5 km/h (3 Bft)
23/04/2008 13:00 17,0 C 75 % 1013,0 hPa 0,0 l/m 9,8 km/h (2 Bft) E 1,00 h 0,483 mm 888 W/m 12,5 C 17,0 C 15,3 km/h (3 Bft)
23/04/2008 14:00 17,0 C 75 % 1013,5 hPa 0,0 l/m 9,3 km/h (2 Bft) E 1,00 h 0,508 mm 865 W/m 12,4 C 17,0 C 14,6 km/h (3 Bft)
23/04/2008 15:00 16,4 C 78 % 1013,9 hPa 0,0 l/m 7,5 km/h (2 Bft) E 0,58 h 0,508 mm 631 W/m 12,6 C 16,4 C 12,5 km/h (3 Bft)
23/04/2008 16:00 15,4 C 80 % 1014,3 hPa 0,0 l/m 8,1 km/h (2 Bft) E 0,05 h 0,356 mm 314 W/m 12,0 C 15,4 C 13,2 km/h (3 Bft)
23/04/2008 17:00 15,2 C 81 % 1014,3 hPa 0,0 l/m 4,3 km/h (1 Bft) E 0,13 h 0,178 mm 212 W/m 11,9 C 15,2 C 8,0 km/h (2 Bft)
23/04/2008 18:00 14,6 C 84 % 1014,7 hPa 0,0 l/m 3,9 km/h (1 Bft) E-NE 0,23 h 0,127 mm 122 W/m 11,9 C 14,6 C 6,4 km/h (2 Bft)
23/04/2008 19:00 14,8 C 81 % 1014,7 hPa 0,0 l/m 5,7 km/h (1 Bft) NE 0,53 h 0,076 mm 92 W/m 11,5 C 14,8 C 8,1 km/h (2 Bft)
23/04/2008 20:00 13,2 C 85 % 1015,1 hPa 0,0 l/m 0,8 km/h (0 Bft) NE 0,13 h 0,076 mm 16 W/m 10,7 C 13,2 C 1,7 km/h (1 Bft)
23/04/2008 21:00 12,4 C 88 % 1015,6 hPa 0,0 l/m 0,7 km/h (0 Bft) NE 0,00 h 0,000 mm 0 W/m 10,4 C 12,4 C 1,5 km/h (1 Bft)
23/04/2008 22:00 12,4 C 90 % 1016,2 hPa 0,0 l/m 0,8 km/h (0 Bft) SE 0,00 h 0,025 mm 0 W/m 10,8 C 12,4 C 2,3 km/h (1 Bft)
23/04/2008 23:00 12,5 C 91 % 1016,8 hPa 0,0 l/m 0,5 km/h (0 Bft) E-SE 0,00 h 0,025 mm 0 W/m 11,1 C 12,5 C 1,1 km/h (0 Bft)
24/04/2008 00:00 12,6 C 92 % 1017,2 hPa 0,0 l/m 0,8 km/h (0 Bft) E-NE 0,00 h 0,000 mm 0 W/m 11,3 C 12,6 C 1,5 km/h (1 Bft)
24/04/2008 01:00 12,6 C 93 % 1017,4 hPa 0,0 l/m 0,4 km/h (0 Bft) E-NE 0,00 h 0,000 mm 0 W/m 11,5 C 12,6 C 0,7 km/h (0 Bft)
24/04/2008 02:00 12,5 C 93 % 1017,2 hPa 0,0 l/m 3,3 km/h (1 Bft) S-SO 0,00 h 0,000 mm 0 W/m 11,4 C 12,5 C 4,5 km/h (1 Bft)
24/04/2008 03:00 12,3 C 94 % 1016,8 hPa 0,0 l/m 0,1 km/h (0 Bft) S-SO 0,00 h 0,025 mm 0 W/m 11,4 C 12,3 C 0,3 km/h (0 Bft)
24/04/2008 04:00 11,7 C 93 % 1017,1 hPa 0,0 l/m 3,2 km/h (1 Bft) NO 0,00 h 0,000 mm 0 W/m 10,7 C 11,7 C 5,2 km/h (1 Bft)
24/04/2008 05:00 10,8 C 93 % 1017,3 hPa 0,0 l/m 3,2 km/h (1 Bft) N-NO 0,00 h 0,000 mm 0 W/m 9,7 C 10,8 C 5,0 km/h (1 Bft)
24/04/2008 06:00 10,4 C 93 % 1018,1 hPa 0,0 l/m 1,8 km/h (1 Bft) N 0,00 h 0,000 mm 6 W/m 9,3 C 10,4 C 3,3 km/h (1 Bft)
24/04/2008 07:00 11,3 C 93 % 1019,1 hPa 0,0 l/m 1,9 km/h (1 Bft) NO 0,05 h 0,000 mm 58 W/m 10,2 C 11,3 C 3,0 km/h (1 Bft)
24/04/2008 08:00 12,4 C 92 % 1020,1 hPa 0,0 l/m 2,6 km/h (1 Bft) N 0,08 h 0,025 mm 117 W/m 11,0 C 12,4 C 5,0 km/h (1 Bft)
24/04/2008 09:00 14,4 C 81 % 1020,7 hPa 0,0 l/m 4,3 km/h (1 Bft) NE 0,33 h 0,051 mm 266 W/m 11,2 C 14,4 C 7,0 km/h (2 Bft)
24/04/2008 10:00 15,9 C 76 % 1021,0 hPa 0,0 l/m 6,1 km/h (2 Bft) E 0,45 h 0,152 mm 442 W/m 11,6 C 15,9 C 9,8 km/h (2 Bft)
24/04/2008 11:00 17,3 C 73 % 1021,4 hPa 0,0 l/m 7,7 km/h (2 Bft) E 1,00 h 0,254 mm 805 W/m 12,3 C 17,3 C 12,7 km/h (3 Bft)
24/04/2008 12:00 17,8 C 67 % 1021,3 hPa 0,0 l/m 4,5 km/h (1 Bft) E 1,00 h 0,457 mm 914 W/m 11,5 C 17,8 C 8,1 km/h (2 Bft)
24/04/2008 13:00 19,2 C 63 % 1021,0 hPa 0,0 l/m 6,2 km/h (2 Bft) S 1,00 h 0,533 mm 844 W/m 11,9 C 19,2 C 9,9 km/h (2 Bft)
24/04/2008 14:00 19,9 C 57 % 1020,7 hPa 0,0 l/m 8,3 km/h (2 Bft) S-SE 1,00 h 0,508 mm 811 W/m 11,0 C 19,9 C 13,1 km/h (3 Bft)
24/04/2008 15:00 19,7 C 57 % 1020,7 hPa 0,0 l/m 7,5 km/h (2 Bft) S-SE 0,53 h 0,508 mm 449 W/m 11,0 C 19,7 C 12,0 km/h (2 Bft)
24/04/2008 16:00 17,9 C 67 % 1021,0 hPa 0,0 l/m 5,4 km/h (1 Bft) S-SE 0,23 h 0,305 mm 250 W/m 11,5 C 17,9 C 8,3 km/h (2 Bft)
24/04/2008 17:00 18,7 C 61 % 1020,9 hPa 0,0 l/m 2,7 km/h (1 Bft) E-SE 0,62 h 0,178 mm 339 W/m 11,1 C 18,7 C 4,8 km/h (1 Bft)
24/04/2008 18:00 18,7 C 61 % 1020,7 hPa 0,0 l/m 2,3 km/h (1 Bft) S-SE 0,15 h 0,203 mm 152 W/m 11,0 C 18,7 C 4,7 km/h (1 Bft)
24/04/2008 19:00 17,6 C 64 % 1020,8 hPa 0,0 l/m 4,1 km/h (1 Bft) S-SE 0,00 h 0,102 mm 61 W/m 10,6 C 17,6 C 6,2 km/h (2 Bft)
24/04/2008 20:00 16,1 C 68 % 1021,2 hPa 0,0 l/m 5,7 km/h (1 Bft) SO 0,02 h 0,051 mm 12 W/m 10,2 C 16,1 C 7,6 km/h (2 Bft)
24/04/2008 21:00 15,0 C 71 % 1021,6 hPa 0,0 l/m 2,3 km/h (1 Bft) O 0,00 h 0,025 mm 0 W/m 9,7 C 15,0 C 3,5 km/h (1 Bft)
24/04/2008 22:00 14,1 C 76 % 1021,9 hPa 0,0 l/m 2,2 km/h (1 Bft) N 0,00 h 0,025 mm 0 W/m 9,9 C 14,1 C 3,8 km/h (1 Bft)
24/04/2008 23:00 13,4 C 79 % 1022,1 hPa 0,0 l/m 1,2 km/h (1 Bft) N-NE 0,00 h 0,025 mm 0 W/m 9,8 C 13,4 C 2,5 km/h (1 Bft)
25/04/2008 00:00 13,4 C 80 % 1022,2 hPa 0,0 l/m 3,5 km/h (1 Bft) NO 0,00 h 0,025 mm 0 W/m 10,0 C 13,4 C 5,3 km/h (1 Bft)
25/04/2008 01:00 13,6 C 78 % 1022,1 hPa 0,0 l/m 4,2 km/h (1 Bft) O 0,00 h 0,025 mm 0 W/m 9,9 C 13,6 C 5,9 km/h (2 Bft)
25/04/2008 02:00 13,6 C 78 % 1021,8 hPa 0,0 l/m 4,9 km/h (1 Bft) O-NO 0,00 h 0,025 mm 0 W/m 9,8 C 13,6 C 6,4 km/h (2 Bft)
25/04/2008 03:00 12,7 C 81 % 1021,7 hPa 0,0 l/m 2,5 km/h (1 Bft) O 0,00 h 0,025 mm 0 W/m 9,4 C 12,7 C 3,6 km/h (1 Bft)
25/04/2008 04:00 12,7 C 82 % 1021,6 hPa 0,0 l/m 2,7 km/h (1 Bft) O 0,00 h 0,025 mm 0 W/m 9,6 C 12,7 C 3,9 km/h (1 Bft)
25/04/2008 05:00 11,8 C 83 % 1021,7 hPa 0,0 l/m 0,9 km/h (0 Bft) O-NO 0,00 h 0,025 mm 0 W/m 9,1 C 11,8 C 1,5 km/h (1 Bft)
25/04/2008 06:00 11,6 C 86 % 1021,8 hPa 0,0 l/m 0,7 km/h (0 Bft) O-NO 0,08 h 0,025 mm 15 W/m 9,3 C 11,6 C 1,0 km/h (0 Bft)
25/04/2008 07:00 11,9 C 87 % 1022,3 hPa 0,0 l/m 0,9 km/h (0 Bft) O-NO 0,30 h 0,000 mm 89 W/m 9,8 C 11,9 C 1,4 km/h (1 Bft)
25/04/2008 08:00 14,2 C 78 % 1022,9 hPa 0,0 l/m 1,6 km/h (1 Bft) E 0,82 h 0,051 mm 245 W/m 10,5 C 14,2 C 3,0 km/h (1 Bft)
25/04/2008 09:00 16,9 C 68 % 1023,1 hPa 0,0 l/m 3,1 km/h (1 Bft) E-NE 0,78 h 0,127 mm 340 W/m 11,0 C 16,9 C 5,2 km/h (1 Bft)
25/04/2008 10:00 17,8 C 66 % 1023,1 hPa 0,0 l/m 2,9 km/h (1 Bft) E 0,67 h 0,203 mm 412 W/m 11,3 C 17,8 C 4,8 km/h (1 Bft)
25/04/2008 11:00 18,6 C 67 % 1023,1 hPa 0,0 l/m 7,6 km/h (2 Bft) E 1,00 h 0,254 mm 675 W/m 12,4 C 18,6 C 10,8 km/h (2 Bft)
25/04/2008 12:00 18,8 C 68 % 1023,0 hPa 0,0 l/m 10,2 km/h (2 Bft) E 1,00 h 0,406 mm 783 W/m 12,7 C 18,8 C 14,9 km/h (3 Bft)
25/04/2008 13:00 18,4 C 71 % 1022,4 hPa 0,0 l/m 8,3 km/h (2 Bft) E 1,00 h 0,483 mm 827 W/m 13,1 C 18,4 C 13,3 km/h (3 Bft)
25/04/2008 14:00 18,8 C 67 % 1022,0 hPa 0,0 l/m 7,8 km/h (2 Bft) E 1,00 h 0,508 mm 808 W/m 12,6 C 18,8 C 11,7 km/h (2 Bft)
25/04/2008 15:00 19,1 C 64 % 1021,4 hPa 0,0 l/m 7,7 km/h (2 Bft) E 1,00 h 0,483 mm 718 W/m 12,0 C 19,1 C 11,4 km/h (2 Bft)
25/04/2008 16:00 18,8 C 65 % 1020,6 hPa 0,0 l/m 6,2 km/h (2 Bft) E 0,83 h 0,457 mm 497 W/m 12,1 C 18,8 C 9,3 km/h (2 Bft)
25/04/2008 17:00 17,5 C 69 % 1020,1 hPa 0,0 l/m 5,4 km/h (1 Bft) E 0,50 h 0,305 mm 302 W/m 11,7 C 17,5 C 7,8 km/h (2 Bft)
25/04/2008 18:00 17,7 C 70 % 1019,8 hPa 0,0 l/m 3,4 km/h (1 Bft) E-NE 0,97 h 0,203 mm 267 W/m 12,2 C 17,7 C 5,6 km/h (1 Bft)
25/04/2008 19:00 17,1 C 78 % 1019,1 hPa 0,0 l/m 2,0 km/h (1 Bft) E-NE 0,78 h 0,178 mm 100 W/m 13,3 C 17,1 C 3,6 km/h (1 Bft)
25/04/2008 20:00 14,8 C 83 % 1019,0 hPa 0,0 l/m 2,3 km/h (1 Bft) E-NE 0,12 h 0,076 mm 15 W/m 11,8 C 14,8 C 3,5 km/h (1 Bft)
25/04/2008 21:00 13,7 C 87 % 1019,3 hPa 0,0 l/m 2,6 km/h (1 Bft) NE 0,00 h 0,025 mm 0 W/m 11,6 C 13,7 C 3,8 km/h (1 Bft)
25/04/2008 22:00 13,3 C 90 % 1019,8 hPa 0,0 l/m 2,0 km/h (1 Bft) E-NE 0,00 h 0,025 mm 0 W/m 11,6 C 13,3 C 3,4 km/h (1 Bft)
25/04/2008 23:00 13,3 C 92 % 1020,0 hPa 0,0 l/m 1,1 km/h (0 Bft) SE 0,00 h 0,025 mm 0 W/m 12,0 C 13,3 C 2,1 km/h (1 Bft)
26/04/2008 00:00 13,2 C 93 % 1020,1 hPa 0,0 l/m 1,8 km/h (1 Bft) S 0,00 h 0,000 mm 0 W/m 12,1 C 13,2 C 3,1 km/h (1 Bft)
26/04/2008 01:00 13,1 C 94 % 1020,3 hPa 0,0 l/m 1,7 km/h (1 Bft) E-NE 0,00 h 0,000 mm 0 W/m 12,1 C 13,1 C 2,8 km/h (1 Bft)
26/04/2008 02:00 12,7 C 95 % 1020,2 hPa 0,0 l/m 0,8 km/h (0 Bft) NE 0,00 h 0,000 mm 0 W/m 11,9 C 12,7 C 2,0 km/h (1 Bft)
26/04/2008 03:00 12,2 C 95 % 1020,0 hPa 0,0 l/m 2,5 km/h (1 Bft) N 0,00 h 0,000 mm 0 W/m 11,4 C 12,2 C 4,0 km/h (1 Bft)
26/04/2008 04:00 11,3 C 95 % 1019,7 hPa 0,0 l/m 2,1 km/h (1 Bft) O-NO 0,00 h 0,000 mm 0 W/m 10,5 C 11,3 C 3,3 km/h (1 Bft)
26/04/2008 05:00 10,8 C 95 % 1019,9 hPa 0,0 l/m 2,4 km/h (1 Bft) O-NO 0,00 h 0,000 mm 0 W/m 10,0 C 10,8 C 3,6 km/h (1 Bft)
26/04/2008 06:00 10,9 C 96 % 1020,6 hPa 0,0 l/m 2,4 km/h (1 Bft) N 0,00 h 0,000 mm 12 W/m 10,2 C 10,9 C 4,5 km/h (1 Bft)
26/04/2008 07:00 11,6 C 96 % 1021,1 hPa 0,0 l/m 1,7 km/h (1 Bft) N 0,00 h 0,000 mm 39 W/m 11,0 C 11,6 C 3,8 km/h (1 Bft)
26/04/2008 08:00 12,7 C 96 % 1021,8 hPa 0,0 l/m 1,5 km/h (1 Bft) N 0,30 h 0,025 mm 161 W/m 12,1 C 12,7 C 3,1 km/h (1 Bft)
26/04/2008 09:00 15,3 C 87 % 1022,3 hPa 0,0 l/m 2,5 km/h (1 Bft) E-NE 1,00 h 0,076 mm 389 W/m 13,1 C 15,3 C 4,4 km/h (1 Bft)
26/04/2008 10:00 18,1 C 69 % 1022,6 hPa 0,0 l/m 10,0 km/h (2 Bft) NE 1,00 h 0,203 mm 584 W/m 12,3 C 18,1 C 15,3 km/h (3 Bft)
26/04/2008 11:00 19,4 C 60 % 1023,1 hPa 0,0 l/m 14,9 km/h (3 Bft) E-NE 1,00 h 0,381 mm 720 W/m 11,5 C 19,4 C 20,7 km/h (4 Bft)
26/04/2008 12:00 19,7 C 56 % 1023,2 hPa 0,0 l/m 9,4 km/h (2 Bft) E 1,00 h 0,483 mm 813 W/m 10,7 C 19,7 C 15,5 km/h (3 Bft)
26/04/2008 13:00 20,0 C 46 % 1023,0 hPa 0,0 l/m 13,5 km/h (3 Bft) E-NE 0,80 h 0,533 mm 688 W/m 8,1 C 20,0 C 18,9 km/h (3 Bft)
26/04/2008 14:00 20,1 C 44 % 1022,8 hPa 0,0 l/m 9,2 km/h (2 Bft) E-NE 0,75 h 0,508 mm 626 W/m 7,5 C 20,1 C 13,9 km/h (3 Bft)
26/04/2008 15:00 19,3 C 45 % 1022,7 hPa 0,0 l/m 4,7 km/h (1 Bft) E 0,75 h 0,457 mm 585 W/m 7,1 C 19,3 C 8,8 km/h (2 Bft)
26/04/2008 16:00 19,7 C 38 % 1022,2 hPa 0,0 l/m 5,6 km/h (1 Bft) E 1,00 h 0,381 mm 611 W/m 4,9 C 19,7 C 8,9 km/h (2 Bft)
26/04/2008 17:00 19,4 C 37 % 1022,2 hPa 0,0 l/m 5,2 km/h (1 Bft) E 1,00 h 0,406 mm 456 W/m 4,2 C 19,4 C 8,3 km/h (2 Bft)
26/04/2008 18:00 18,8 C 35 % 1022,0 hPa 0,0 l/m 2,7 km/h (1 Bft) S-SE 0,97 h 0,305 mm 268 W/m 3,1 C 18,8 C 5,0 km/h (1 Bft)
26/04/2008 19:00 18,5 C 35 % 1021,7 hPa 0,0 l/m 0,4 km/h (0 Bft) SE 0,80 h 0,178 mm 111 W/m 2,9 C 18,5 C 1,0 km/h (0 Bft)
26/04/2008 20:00 16,5 C 39 % 1021,7 hPa 0,0 l/m 1,8 km/h (1 Bft) SO 0,00 h 0,076 mm 12 W/m 2,6 C 16,5 C 2,6 km/h (1 Bft)
26/04/2008 21:00 15,2 C 49 % 1022,0 hPa 0,0 l/m 2,5 km/h (1 Bft) O-NO 0,00 h 0,025 mm 0 W/m 4,6 C 15,2 C 4,5 km/h (1 Bft)
26/04/2008 22:00 15,2 C 49 % 1022,3 hPa 0,0 l/m 0,9 km/h (0 Bft) O-NO 0,00 h 0,051 mm 0 W/m 4,7 C 15,2 C 1,9 km/h (1 Bft)
26/04/2008 23:00 15,2 C 50 % 1022,6 hPa 0,0 l/m 0,3 km/h (0 Bft) O-NO 0,00 h 0,051 mm 0 W/m 4,7 C 15,2 C 0,6 km/h (0 Bft)
27/04/2008 00:00 15,1 C 48 % 1022,9 hPa 0,0 l/m 0,3 km/h (0 Bft) O-NO 0,00 h 0,051 mm 0 W/m 4,3 C 15,1 C 0,7 km/h (0 Bft)
27/04/2008 01:00 15,0 C 50 % 1023,0 hPa 0,0 l/m 1,6 km/h (1 Bft) O-NO 0,00 h 0,051 mm 0 W/m 4,5 C 15,0 C 2,8 km/h (1 Bft)
27/04/2008 02:00 13,9 C 56 % 1022,8 hPa 0,0 l/m 1,0 km/h (0 Bft) O-NO 0,00 h 0,051 mm 0 W/m 5,2 C 13,9 C 2,4 km/h (1 Bft)
27/04/2008 03:00 13,8 C 58 % 1022,7 hPa 0,0 l/m 0,3 km/h (0 Bft) O-NO 0,00 h 0,051 mm 0 W/m 5,5 C 13,8 C 1,1 km/h (0 Bft)
27/04/2008 04:00 14,2 C 56 % 1022,7 hPa 0,0 l/m 1,3 km/h (1 Bft) O-NO 0,00 h 0,025 mm 0 W/m 5,4 C 14,2 C 2,5 km/h (1 Bft)
27/04/2008 05:00 14,1 C 57 % 1022,5 hPa 0,0 l/m 2,0 km/h (1 Bft) O-NO 0,00 h 0,051 mm 0 W/m 5,7 C 14,1 C 3,7 km/h (1 Bft)
27/04/2008 06:00 13,9 C 57 % 1022,5 hPa 0,0 l/m 1,3 km/h (1 Bft) O-NO 0,27 h 0,051 mm 21 W/m 5,5 C 13,9 C 2,1 km/h (1 Bft)
27/04/2008 07:00 14,0 C 60 % 1022,8 hPa 0,0 l/m 0,4 km/h (0 Bft) O-NO 0,10 h 0,025 mm 81 W/m 6,4 C 14,0 C 0,9 km/h (0 Bft)
27/04/2008 08:00 15,3 C 58 % 1023,2 hPa 0,0 l/m 1,1 km/h (1 Bft) O-NO 0,62 h 0,051 mm 216 W/m 7,1 C 15,3 C 2,6 km/h (1 Bft)
27/04/2008 09:00 17,1 C 53 % 1023,3 hPa 0,0 l/m 3,0 km/h (1 Bft) S 1,00 h 0,127 mm 398 W/m 7,4 C 17,1 C 5,2 km/h (1 Bft)
27/04/2008 10:00 18,9 C 38 % 1023,2 hPa 0,0 l/m 3,5 km/h (1 Bft) S-SE 0,85 h 0,254 mm 573 W/m 4,2 C 18,9 C 6,2 km/h (2 Bft)
27/04/2008 11:00 20,0 C 36 % 1023,0 hPa 0,0 l/m 7,0 km/h (2 Bft) S 1,00 h 0,356 mm 752 W/m 4,4 C 20,0 C 11,0 km/h (2 Bft)
27/04/2008 12:00 20,7 C 34 % 1022,4 hPa 0,0 l/m 9,0 km/h (2 Bft) SE 1,00 h 0,508 mm 828 W/m 4,2 C 20,7 C 15,7 km/h (3 Bft)
27/04/2008 13:00 20,7 C 31 % 1021,9 hPa 0,0 l/m 11,6 km/h (2 Bft) S-SE 0,97 h 0,559 mm 800 W/m 3,0 C 20,7 C 18,3 km/h (3 Bft)
27/04/2008 14:00 20,2 C 32 % 1021,6 hPa 0,0 l/m 13,7 km/h (3 Bft) S-SE 1,00 h 0,584 mm 782 W/m 2,8 C 20,2 C 20,0 km/h (4 Bft)
27/04/2008 15:00 19,8 C 33 % 1021,1 hPa 0,0 l/m 12,1 km/h (2 Bft) S 1,00 h 0,584 mm 647 W/m 2,8 C 19,8 C 17,5 km/h (3 Bft)
27/04/2008 16:00 19,7 C 31 % 1020,6 hPa 0,0 l/m 10,9 km/h (2 Bft) S-SE 1,00 h 0,483 mm 615 W/m 2,2 C 19,7 C 16,8 km/h (3 Bft)
27/04/2008 17:00 19,6 C 28 % 1020,0 hPa 0,0 l/m 10,0 km/h (2 Bft) S-SE 1,00 h 0,457 mm 448 W/m 0,5 C 19,6 C 14,9 km/h (3 Bft)
27/04/2008 18:00 18,9 C 28 % 1019,6 hPa 0,0 l/m 10,8 km/h (2 Bft) S 0,93 h 0,356 mm 237 W/m -0,2 C 18,9 C 14,9 km/h (3 Bft)
27/04/2008 19:00 18,0 C 31 % 1019,2 hPa 0,0 l/m 4,2 km/h (1 Bft) S 0,92 h 0,254 mm 121 W/m 0,7 C 18,0 C 6,3 km/h (2 Bft)
27/04/2008 20:00 15,9 C 37 % 1018,9 hPa 0,0 l/m 5,1 km/h (1 Bft) S 0,10 h 0,127 mm 18 W/m 1,1 C 15,9 C 6,7 km/h (2 Bft)
27/04/2008 21:00 14,8 C 41 % 1019,0 hPa 0,0 l/m 2,9 km/h (1 Bft) O 0,00 h 0,051 mm 0 W/m 1,7 C 14,8 C 4,6 km/h (1 Bft)
27/04/2008 22:00 13,7 C 47 % 1018,9 hPa 0,0 l/m 3,8 km/h (1 Bft) O-NO 0,00 h 0,076 mm 0 W/m 2,5 C 13,7 C 6,0 km/h (2 Bft)
27/04/2008 23:00 13,0 C 49 % 1018,7 hPa 0,0 l/m 2,9 km/h (1 Bft) O-NO 0,00 h 0,051 mm 0 W/m 2,6 C 13,0 C 4,7 km/h (1 Bft)
Min-Date _ 21/04/08 27/04/08 21/04/08 - 21/04/08 - - - - 27/04/08 21/04/08 21/04/08
_ Min-Heure 02:54 18:06 16:00 - 00:23 - - - - 18:06 04:00 00:27
Minimum _ 8,4 C 25 % 997,2 hPa - 0,0 km/h (0 Bft) - - - - -1,2 C 6,2 C 0,0 km/h (0 Bft)
Max-Date _ 27/04/08 21/04/08 27/04/08 21/04/08 21/04/08 - 21/04/08 21/04/08 21/04/08 25/04/08 27/04/08 21/04/08
_ Max-Heure 12:34 10:01 08:30 01:00 14:46 - 09:48 14:00 12:15 13:22 12:34 15:48
Maximum _ 21,4 C 97 % 1023,3 hPa 3,0 l/m 40,2 km/h
SO (6 Bft)
- 0,02 h 0,610 mm 1148 W/m 14,1 C 21,4 C 53,1 km/h
SO (7 Bft)
Moyenne _ 14,6 C 72 % 1013,7 hPa #9,0 l/m 6,2 km/h (2 Bft) E #65:40 h #29,177 mm 401 W/m 8,9 C 14,6 C 9,2 km/h (2 Bft)
Roquefort les pins